sensor_id;sensor_type;location;lat;lon;timestamp;P1;durP1;ratioP1;P2;durP2;ratioP2
57567;SDS011;43403;51.948;5.922;2024-02-23T00:00:13;1.73;;;0.70;;
57567;SDS011;43403;51.948;5.922;2024-02-23T00:02:39;3.22;;;0.80;;
57567;SDS011;43403;51.948;5.922;2024-02-23T00:05:06;3.13;;;0.52;;
57567;SDS011;43403;51.948;5.922;2024-02-23T00:07:32;2.67;;;0.90;;
57567;SDS011;43403;51.948;5.922;2024-02-23T00:09:59;5.07;;;0.85;;
57567;SDS011;43403;51.948;5.922;2024-02-23T00:12:26;3.05;;;0.70;;
57567;SDS011;43403;51.948;5.922;2024-02-23T00:14:53;2.47;;;0.80;;
57567;SDS011;43403;51.948;5.922;2024-02-23T00:17:19;6.55;;;1.15;;
57567;SDS011;43403;51.948;5.922;2024-02-23T00:19:46;6.13;;;0.82;;
57567;SDS011;43403;51.948;5.922;2024-02-23T00:22:13;2.53;;;0.70;;
57567;SDS011;43403;51.948;5.922;2024-02-23T00:24:39;5.65;;;1.00;;
57567;SDS011;43403;51.948;5.922;2024-02-23T00:27:07;2.63;;;0.80;;
57567;SDS011;43403;51.948;5.922;2024-02-23T00:29:33;4.07;;;0.90;;
57567;SDS011;43403;51.948;5.922;2024-02-23T00:31:59;5.13;;;1.15;;
57567;SDS011;43403;51.948;5.922;2024-02-23T00:34:26;4.15;;;1.00;;
57567;SDS011;43403;51.948;5.922;2024-02-23T00:36:52;2.95;;;0.82;;
57567;SDS011;43403;51.948;5.922;2024-02-23T00:39:19;2.92;;;1.20;;
57567;SDS011;43403;51.948;5.922;2024-02-23T00:41:45;2.92;;;1.00;;
57567;SDS011;43403;51.948;5.922;2024-02-23T00:44:12;6.15;;;1.40;;
57567;SDS011;43403;51.948;5.922;2024-02-23T00:46:38;6.20;;;1.30;;
57567;SDS011;43403;51.948;5.922;2024-02-23T00:49:05;4.93;;;1.48;;
57567;SDS011;43403;51.948;5.922;2024-02-23T00:51:32;2.42;;;0.82;;
57567;SDS011;43403;51.948;5.922;2024-02-23T00:53:58;4.68;;;1.00;;
57567;SDS011;43403;51.948;5.922;2024-02-23T00:56:25;5.57;;;1.90;;
57567;SDS011;43403;51.948;5.922;2024-02-23T00:59:01;11.35;;;2.10;;
57567;SDS011;43403;51.948;5.922;2024-02-23T01:01:28;5.40;;;1.90;;
57567;SDS011;43403;51.948;5.922;2024-02-23T01:03:55;3.33;;;1.40;;
57567;SDS011;43403;51.948;5.922;2024-02-23T01:06:21;5.05;;;1.95;;
57567;SDS011;43403;51.948;5.922;2024-02-23T01:08:48;6.00;;;2.20;;
57567;SDS011;43403;51.948;5.922;2024-02-23T01:11:15;6.60;;;2.60;;
57567;SDS011;43403;51.948;5.922;2024-02-23T01:13:41;6.07;;;2.47;;
57567;SDS011;43403;51.948;5.922;2024-02-23T01:16:08;8.15;;;2.90;;
57567;SDS011;43403;51.948;5.922;2024-02-23T01:18:34;10.20;;;2.78;;
57567;SDS011;43403;51.948;5.922;2024-02-23T01:21:01;7.97;;;3.15;;
57567;SDS011;43403;51.948;5.922;2024-02-23T01:23:27;6.68;;;2.50;;
57567;SDS011;43403;51.948;5.922;2024-02-23T01:25:54;4.50;;;2.53;;
57567;SDS011;43403;51.948;5.922;2024-02-23T01:28:20;7.38;;;3.00;;
57567;SDS011;43403;51.948;5.922;2024-02-23T01:30:47;8.50;;;3.13;;
57567;SDS011;43403;51.948;5.922;2024-02-23T01:33:13;8.65;;;3.20;;
57567;SDS011;43403;51.948;5.922;2024-02-23T01:35:39;6.82;;;2.70;;
57567;SDS011;43403;51.948;5.922;2024-02-23T01:38:06;5.28;;;2.70;;
57567;SDS011;43403;51.948;5.922;2024-02-23T01:40:33;7.55;;;2.67;;
57567;SDS011;43403;51.948;5.922;2024-02-23T01:43:03;4.47;;;2.33;;
57567;SDS011;43403;51.948;5.922;2024-02-23T01:45:30;8.40;;;2.40;;
57567;SDS011;43403;51.948;5.922;2024-02-23T01:47:59;6.05;;;2.05;;
57567;SDS011;43403;51.948;5.922;2024-02-23T01:50:27;5.57;;;1.90;;
57567;SDS011;43403;51.948;5.922;2024-02-23T01:52:54;5.05;;;1.60;;
57567;SDS011;43403;51.948;5.922;2024-02-23T01:55:21;7.80;;;1.90;;
57567;SDS011;43403;51.948;5.922;2024-02-23T01:57:48;3.53;;;1.42;;
57567;SDS011;43403;51.948;5.922;2024-02-23T02:00:16;6.70;;;1.40;;
57567;SDS011;43403;51.948;5.922;2024-02-23T02:02:43;4.57;;;1.50;;
57567;SDS011;43403;51.948;5.922;2024-02-23T02:05:10;5.40;;;1.20;;
57567;SDS011;43403;51.948;5.922;2024-02-23T02:07:37;3.60;;;0.82;;
57567;SDS011;43403;51.948;5.922;2024-02-23T02:10:05;5.90;;;1.15;;
57567;SDS011;43403;51.948;5.922;2024-02-23T02:12:32;9.10;;;1.77;;
57567;SDS011;43403;51.948;5.922;2024-02-23T02:14:59;6.50;;;1.17;;
57567;SDS011;43403;51.948;5.922;2024-02-23T02:17:27;1.88;;;0.68;;
57567;SDS011;43403;51.948;5.922;2024-02-23T02:19:54;6.18;;;1.90;;
57567;SDS011;43403;51.948;5.922;2024-02-23T02:22:20;4.50;;;1.13;;
57567;SDS011;43403;51.948;5.922;2024-02-23T02:24:47;4.53;;;1.02;;
57567;SDS011;43403;51.948;5.922;2024-02-23T02:27:14;5.65;;;1.40;;
57567;SDS011;43403;51.948;5.922;2024-02-23T02:29:40;10.75;;;1.35;;
57567;SDS011;43403;51.948;5.922;2024-02-23T02:32:07;9.05;;;1.17;;
57567;SDS011;43403;51.948;5.922;2024-02-23T02:34:33;4.97;;;1.30;;
57567;SDS011;43403;51.948;5.922;2024-02-23T02:37:00;8.48;;;1.38;;
57567;SDS011;43403;51.948;5.922;2024-02-23T02:39:27;4.25;;;1.10;;
57567;SDS011;43403;51.948;5.922;2024-02-23T02:41:53;9.13;;;1.42;;
57567;SDS011;43403;51.948;5.922;2024-02-23T02:44:19;4.85;;;0.85;;
57567;SDS011;43403;51.948;5.922;2024-02-23T02:46:46;4.55;;;1.38;;
57567;SDS011;43403;51.948;5.922;2024-02-23T02:49:12;7.72;;;1.15;;
57567;SDS011;43403;51.948;5.922;2024-02-23T02:51:39;8.65;;;1.27;;
57567;SDS011;43403;51.948;5.922;2024-02-23T02:54:05;5.35;;;1.10;;
57567;SDS011;43403;51.948;5.922;2024-02-23T02:56:32;4.50;;;0.95;;
57567;SDS011;43403;51.948;5.922;2024-02-23T02:58:58;5.40;;;1.00;;
57567;SDS011;43403;51.948;5.922;2024-02-23T03:01:24;7.65;;;1.58;;
57567;SDS011;43403;51.948;5.922;2024-02-23T03:03:51;6.00;;;1.45;;
57567;SDS011;43403;51.948;5.922;2024-02-23T03:06:17;4.10;;;1.30;;
57567;SDS011;43403;51.948;5.922;2024-02-23T03:08:44;7.18;;;1.23;;
57567;SDS011;43403;51.948;5.922;2024-02-23T03:11:10;4.68;;;1.58;;
57567;SDS011;43403;51.948;5.922;2024-02-23T03:13:37;4.70;;;1.13;;
57567;SDS011;43403;51.948;5.922;2024-02-23T03:16:03;4.93;;;0.90;;
57567;SDS011;43403;51.948;5.922;2024-02-23T03:18:30;3.88;;;1.17;;
57567;SDS011;43403;51.948;5.922;2024-02-23T03:20:56;4.07;;;1.00;;
57567;SDS011;43403;51.948;5.922;2024-02-23T03:23:23;4.72;;;1.05;;
57567;SDS011;43403;51.948;5.922;2024-02-23T03:25:49;5.85;;;1.25;;
57567;SDS011;43403;51.948;5.922;2024-02-23T03:28:16;8.77;;;1.20;;
57567;SDS011;43403;51.948;5.922;2024-02-23T03:30:42;3.30;;;0.90;;
57567;SDS011;43403;51.948;5.922;2024-02-23T03:33:09;3.85;;;0.77;;
57567;SDS011;43403;51.948;5.922;2024-02-23T03:35:35;4.70;;;0.90;;
57567;SDS011;43403;51.948;5.922;2024-02-23T03:38:02;12.05;;;1.38;;
57567;SDS011;43403;51.948;5.922;2024-02-23T03:40:28;5.97;;;1.45;;
57567;SDS011;43403;51.948;5.922;2024-02-23T03:42:55;5.80;;;1.30;;
57567;SDS011;43403;51.948;5.922;2024-02-23T03:45:21;6.43;;;1.17;;
57567;SDS011;43403;51.948;5.922;2024-02-23T03:47:47;3.13;;;1.02;;
57567;SDS011;43403;51.948;5.922;2024-02-23T03:50:14;4.90;;;1.23;;
57567;SDS011;43403;51.948;5.922;2024-02-23T03:52:41;7.65;;;1.30;;
57567;SDS011;43403;51.948;5.922;2024-02-23T03:55:07;5.18;;;1.42;;
57567;SDS011;43403;51.948;5.922;2024-02-23T03:57:34;6.57;;;1.20;;
57567;SDS011;43403;51.948;5.922;2024-02-23T04:00:00;8.48;;;1.58;;
57567;SDS011;43403;51.948;5.922;2024-02-23T04:02:27;5.90;;;1.15;;
57567;SDS011;43403;51.948;5.922;2024-02-23T04:04:53;5.13;;;1.10;;
57567;SDS011;43403;51.948;5.922;2024-02-23T04:07:20;5.32;;;0.98;;
57567;SDS011;43403;51.948;5.922;2024-02-23T04:09:47;8.05;;;1.20;;
57567;SDS011;43403;51.948;5.922;2024-02-23T04:12:18;4.78;;;1.10;;
57567;SDS011;43403;51.948;5.922;2024-02-23T04:14:46;6.43;;;1.20;;
57567;SDS011;43403;51.948;5.922;2024-02-23T04:17:12;5.68;;;1.08;;
57567;SDS011;43403;51.948;5.922;2024-02-23T04:19:40;4.80;;;1.65;;
57567;SDS011;43403;51.948;5.922;2024-02-23T04:22:06;7.53;;;1.30;;
57567;SDS011;43403;51.948;5.922;2024-02-23T04:24:37;4.25;;;0.90;;
57567;SDS011;43403;51.948;5.922;2024-02-23T04:27:04;4.20;;;1.25;;
57567;SDS011;43403;51.948;5.922;2024-02-23T04:29:31;5.05;;;1.58;;
57567;SDS011;43403;51.948;5.922;2024-02-23T04:32:01;2.90;;;0.95;;
57567;SDS011;43403;51.948;5.922;2024-02-23T04:34:28;3.97;;;1.00;;
57567;SDS011;43403;51.948;5.922;2024-02-23T04:36:55;7.68;;;1.30;;
57567;SDS011;43403;51.948;5.922;2024-02-23T04:39:21;4.97;;;1.20;;
57567;SDS011;43403;51.948;5.922;2024-02-23T04:41:48;6.07;;;1.42;;
57567;SDS011;43403;51.948;5.922;2024-02-23T04:44:14;10.32;;;2.28;;
57567;SDS011;43403;51.948;5.922;2024-02-23T04:46:41;7.78;;;1.20;;
57567;SDS011;43403;51.948;5.922;2024-02-23T04:49:07;3.97;;;0.93;;
57567;SDS011;43403;51.948;5.922;2024-02-23T04:51:34;4.63;;;1.35;;
57567;SDS011;43403;51.948;5.922;2024-02-23T04:54:00;8.45;;;1.25;;
57567;SDS011;43403;51.948;5.922;2024-02-23T04:56:26;4.18;;;1.20;;
57567;SDS011;43403;51.948;5.922;2024-02-23T04:58:53;4.97;;;0.90;;
57567;SDS011;43403;51.948;5.922;2024-02-23T05:01:19;5.07;;;1.25;;
57567;SDS011;43403;51.948;5.922;2024-02-23T05:03:46;6.57;;;1.58;;
57567;SDS011;43403;51.948;5.922;2024-02-23T05:06:13;4.35;;;1.20;;
57567;SDS011;43403;51.948;5.922;2024-02-23T05:08:39;7.45;;;1.75;;
57567;SDS011;43403;51.948;5.922;2024-02-23T05:11:07;7.07;;;1.33;;
57567;SDS011;43403;51.948;5.922;2024-02-23T05:13:33;6.03;;;1.42;;
57567;SDS011;43403;51.948;5.922;2024-02-23T05:16:00;3.22;;;1.00;;
57567;SDS011;43403;51.948;5.922;2024-02-23T05:18:26;5.03;;;1.40;;
57567;SDS011;43403;51.948;5.922;2024-02-23T05:20:53;5.93;;;1.48;;
57567;SDS011;43403;51.948;5.922;2024-02-23T05:23:20;5.03;;;1.27;;
57567;SDS011;43403;51.948;5.922;2024-02-23T05:25:47;8.02;;;1.10;;
57567;SDS011;43403;51.948;5.922;2024-02-23T05:28:13;6.78;;;2.17;;
57567;SDS011;43403;51.948;5.922;2024-02-23T05:30:39;7.57;;;1.30;;
57567;SDS011;43403;51.948;5.922;2024-02-23T05:33:07;6.15;;;1.20;;
57567;SDS011;43403;51.948;5.922;2024-02-23T05:35:33;6.97;;;1.60;;
57567;SDS011;43403;51.948;5.922;2024-02-23T05:38:00;6.10;;;1.30;;
57567;SDS011;43403;51.948;5.922;2024-02-23T05:40:27;8.98;;;1.40;;
57567;SDS011;43403;51.948;5.922;2024-02-23T05:42:53;12.07;;;1.52;;
57567;SDS011;43403;51.948;5.922;2024-02-23T05:45:21;3.80;;;1.05;;
57567;SDS011;43403;51.948;5.922;2024-02-23T05:47:48;8.57;;;1.27;;
57567;SDS011;43403;51.948;5.922;2024-02-23T05:50:15;6.47;;;1.27;;
57567;SDS011;43403;51.948;5.922;2024-02-23T05:52:42;4.50;;;1.52;;
57567;SDS011;43403;51.948;5.922;2024-02-23T05:55:09;4.38;;;1.20;;
57567;SDS011;43403;51.948;5.922;2024-02-23T05:57:35;3.90;;;1.50;;
57567;SDS011;43403;51.948;5.922;2024-02-23T06:00:02;11.00;;;1.63;;
57567;SDS011;43403;51.948;5.922;2024-02-23T06:02:28;7.07;;;1.30;;
57567;SDS011;43403;51.948;5.922;2024-02-23T06:04:55;16.60;;;1.70;;
57567;SDS011;43403;51.948;5.922;2024-02-23T06:07:22;3.45;;;1.40;;
57567;SDS011;43403;51.948;5.922;2024-02-23T06:09:55;4.72;;;1.70;;
57567;SDS011;43403;51.948;5.922;2024-02-23T06:12:22;7.45;;;1.70;;
57567;SDS011;43403;51.948;5.922;2024-02-23T06:14:50;8.10;;;1.63;;
57567;SDS011;43403;51.948;5.922;2024-02-23T06:17:16;7.28;;;1.17;;
57567;SDS011;43403;51.948;5.922;2024-02-23T06:19:43;7.85;;;1.45;;
57567;SDS011;43403;51.948;5.922;2024-02-23T06:22:09;8.80;;;1.42;;
57567;SDS011;43403;51.948;5.922;2024-02-23T06:24:37;10.40;;;1.48;;
57567;SDS011;43403;51.948;5.922;2024-02-23T06:27:03;7.13;;;1.55;;
57567;SDS011;43403;51.948;5.922;2024-02-23T06:29:30;5.35;;;1.15;;
57567;SDS011;43403;51.948;5.922;2024-02-23T06:31:56;10.05;;;1.85;;
57567;SDS011;43403;51.948;5.922;2024-02-23T06:34:23;4.30;;;1.23;;
57567;SDS011;43403;51.948;5.922;2024-02-23T06:36:50;8.07;;;1.52;;
57567;SDS011;43403;51.948;5.922;2024-02-23T06:39:16;5.68;;;1.20;;
57567;SDS011;43403;51.948;5.922;2024-02-23T06:41:44;6.25;;;1.40;;
57567;SDS011;43403;51.948;5.922;2024-02-23T06:44:10;4.28;;;1.02;;
57567;SDS011;43403;51.948;5.922;2024-02-23T06:46:37;4.43;;;1.08;;
57567;SDS011;43403;51.948;5.922;2024-02-23T06:49:04;7.97;;;1.40;;
57567;SDS011;43403;51.948;5.922;2024-02-23T06:51:31;4.72;;;0.93;;
57567;SDS011;43403;51.948;5.922;2024-02-23T06:53:57;6.25;;;1.27;;
57567;SDS011;43403;51.948;5.922;2024-02-23T06:56:24;6.43;;;1.10;;
57567;SDS011;43403;51.948;5.922;2024-02-23T06:58:50;6.57;;;0.95;;
57567;SDS011;43403;51.948;5.922;2024-02-23T07:01:17;4.93;;;1.10;;
57567;SDS011;43403;51.948;5.922;2024-02-23T07:03:46;7.28;;;1.25;;
57567;SDS011;43403;51.948;5.922;2024-02-23T07:06:15;3.28;;;0.98;;
57567;SDS011;43403;51.948;5.922;2024-02-23T07:08:44;6.28;;;1.45;;
57567;SDS011;43403;51.948;5.922;2024-02-23T07:11:11;5.63;;;1.23;;
57567;SDS011;43403;51.948;5.922;2024-02-23T07:13:38;4.70;;;1.23;;
57567;SDS011;43403;51.948;5.922;2024-02-23T07:16:05;6.53;;;1.30;;
57567;SDS011;43403;51.948;5.922;2024-02-23T07:18:31;5.55;;;1.13;;
57567;SDS011;43403;51.948;5.922;2024-02-23T07:20:59;6.25;;;1.75;;
57567;SDS011;43403;51.948;5.922;2024-02-23T07:23:25;2.65;;;1.02;;
57567;SDS011;43403;51.948;5.922;2024-02-23T07:25:52;4.43;;;0.95;;
57567;SDS011;43403;51.948;5.922;2024-02-23T07:28:19;7.25;;;1.30;;
57567;SDS011;43403;51.948;5.922;2024-02-23T07:30:46;3.70;;;0.98;;
57567;SDS011;43403;51.948;5.922;2024-02-23T07:33:13;8.63;;;1.52;;
57567;SDS011;43403;51.948;5.922;2024-02-23T07:35:39;7.25;;;1.48;;
57567;SDS011;43403;51.948;5.922;2024-02-23T07:38:06;7.63;;;1.00;;
57567;SDS011;43403;51.948;5.922;2024-02-23T07:40:32;4.50;;;1.10;;
57567;SDS011;43403;51.948;5.922;2024-02-23T07:42:59;7.43;;;1.30;;
57567;SDS011;43403;51.948;5.922;2024-02-23T07:45:25;4.68;;;1.20;;
57567;SDS011;43403;51.948;5.922;2024-02-23T07:47:52;6.80;;;1.40;;
57567;SDS011;43403;51.948;5.922;2024-02-23T07:50:19;5.88;;;1.63;;
57567;SDS011;43403;51.948;5.922;2024-02-23T07:52:45;9.30;;;1.38;;
57567;SDS011;43403;51.948;5.922;2024-02-23T07:55:12;6.47;;;1.00;;
57567;SDS011;43403;51.948;5.922;2024-02-23T07:57:42;8.10;;;1.50;;
57567;SDS011;43403;51.948;5.922;2024-02-23T08:00:08;2.22;;;0.80;;
57567;SDS011;43403;51.948;5.922;2024-02-23T08:02:36;3.83;;;0.85;;
57567;SDS011;43403;51.948;5.922;2024-02-23T08:05:02;6.53;;;1.80;;
57567;SDS011;43403;51.948;5.922;2024-02-23T08:07:30;6.95;;;1.23;;
57567;SDS011;43403;51.948;5.922;2024-02-23T08:09:57;6.40;;;0.90;;
57567;SDS011;43403;51.948;5.922;2024-02-23T08:12:23;6.68;;;1.23;;
57567;SDS011;43403;51.948;5.922;2024-02-23T08:14:50;5.32;;;1.00;;
57567;SDS011;43403;51.948;5.922;2024-02-23T08:17:20;7.60;;;1.70;;
57567;SDS011;43403;51.948;5.922;2024-02-23T08:19:46;6.35;;;1.20;;
57567;SDS011;43403;51.948;5.922;2024-02-23T08:22:13;8.57;;;1.80;;
57567;SDS011;43403;51.948;5.922;2024-02-23T08:24:40;4.75;;;1.00;;
57567;SDS011;43403;51.948;5.922;2024-02-23T08:27:06;5.57;;;1.15;;
57567;SDS011;43403;51.948;5.922;2024-02-23T08:29:33;8.70;;;1.70;;
57567;SDS011;43403;51.948;5.922;2024-02-23T08:31:59;7.97;;;1.30;;
57567;SDS011;43403;51.948;5.922;2024-02-23T08:36:55;8.93;;;1.42;;
57567;SDS011;43403;51.948;5.922;2024-02-23T08:39:21;4.43;;;1.20;;
57567;SDS011;43403;51.948;5.922;2024-02-23T08:41:49;5.53;;;0.93;;
57567;SDS011;43403;51.948;5.922;2024-02-23T08:46:44;5.20;;;1.17;;
57567;SDS011;43403;51.948;5.922;2024-02-23T08:49:10;5.68;;;1.17;;
57567;SDS011;43403;51.948;5.922;2024-02-23T08:54:06;2.70;;;0.93;;
57567;SDS011;43403;51.948;5.922;2024-02-23T08:56:37;2.53;;;0.75;;
57567;SDS011;43403;51.948;5.922;2024-02-23T08:59:05;5.03;;;0.88;;
57567;SDS011;43403;51.948;5.922;2024-02-23T09:01:32;3.65;;;0.90;;
57567;SDS011;43403;51.948;5.922;2024-02-23T09:03:58;3.90;;;1.00;;
57567;SDS011;43403;51.948;5.922;2024-02-23T09:06:25;10.40;;;1.45;;
57567;SDS011;43403;51.948;5.922;2024-02-23T09:08:51;7.05;;;1.08;;
57567;SDS011;43403;51.948;5.922;2024-02-23T09:11:18;5.72;;;1.20;;
57567;SDS011;43403;51.948;5.922;2024-02-23T09:13:45;8.02;;;1.05;;
57567;SDS011;43403;51.948;5.922;2024-02-23T09:16:11;5.93;;;1.10;;
57567;SDS011;43403;51.948;5.922;2024-02-23T09:18:38;4.75;;;1.25;;
57567;SDS011;43403;51.948;5.922;2024-02-23T09:21:04;7.32;;;1.17;;
57567;SDS011;43403;51.948;5.922;2024-02-23T09:23:31;8.02;;;1.30;;
57567;SDS011;43403;51.948;5.922;2024-02-23T09:25:57;5.43;;;1.25;;
57567;SDS011;43403;51.948;5.922;2024-02-23T09:28:24;4.55;;;1.27;;
57567;SDS011;43403;51.948;5.922;2024-02-23T09:30:50;4.20;;;0.90;;
57567;SDS011;43403;51.948;5.922;2024-02-23T09:33:17;4.57;;;0.90;;
57567;SDS011;43403;51.948;5.922;2024-02-23T09:35:43;5.47;;;0.95;;
57567;SDS011;43403;51.948;5.922;2024-02-23T09:38:10;11.38;;;1.40;;
57567;SDS011;43403;51.948;5.922;2024-02-23T09:40:37;12.98;;;1.60;;
57567;SDS011;43403;51.948;5.922;2024-02-23T09:43:04;4.63;;;1.02;;
57567;SDS011;43403;51.948;5.922;2024-02-23T09:45:34;6.00;;;0.98;;
57567;SDS011;43403;51.948;5.922;2024-02-23T09:48:00;5.13;;;1.33;;
57567;SDS011;43403;51.948;5.922;2024-02-23T09:50:27;7.35;;;1.13;;
57567;SDS011;43403;51.948;5.922;2024-02-23T09:52:54;8.23;;;1.45;;
57567;SDS011;43403;51.948;5.922;2024-02-23T09:55:22;5.05;;;1.23;;
57567;SDS011;43403;51.948;5.922;2024-02-23T09:57:50;6.18;;;1.00;;
57567;SDS011;43403;51.948;5.922;2024-02-23T10:02:44;5.10;;;1.30;;
57567;SDS011;43403;51.948;5.922;2024-02-23T10:05:11;3.60;;;1.45;;
57567;SDS011;43403;51.948;5.922;2024-02-23T10:07:39;4.80;;;1.03;;
57567;SDS011;43403;51.948;5.922;2024-02-23T10:10:08;7.95;;;0.90;;
57567;SDS011;43403;51.948;5.922;2024-02-23T10:12:38;5.22;;;1.00;;
57567;SDS011;43403;51.948;5.922;2024-02-23T10:15:05;4.25;;;1.00;;
57567;SDS011;43403;51.948;5.922;2024-02-23T10:17:33;6.95;;;1.30;;
57567;SDS011;43403;51.948;5.922;2024-02-23T10:20:02;8.43;;;1.42;;
57567;SDS011;43403;51.948;5.922;2024-02-23T10:22:31;5.25;;;1.58;;
57567;SDS011;43403;51.948;5.922;2024-02-23T10:24:58;4.40;;;1.30;;
57567;SDS011;43403;51.948;5.922;2024-02-23T10:27:25;5.85;;;1.15;;
57567;SDS011;43403;51.948;5.922;2024-02-23T10:29:54;9.27;;;1.83;;
57567;SDS011;43403;51.948;5.922;2024-02-23T10:32:21;5.00;;;1.08;;
57567;SDS011;43403;51.948;5.922;2024-02-23T10:34:48;4.53;;;1.02;;
57567;SDS011;43403;51.948;5.922;2024-02-23T10:37:18;6.82;;;1.20;;
57567;SDS011;43403;51.948;5.922;2024-02-23T10:39:44;3.85;;;1.02;;
57567;SDS011;43403;51.948;5.922;2024-02-23T10:42:12;6.53;;;1.40;;
57567;SDS011;43403;51.948;5.922;2024-02-23T10:44:41;4.43;;;1.30;;
57567;SDS011;43403;51.948;5.922;2024-02-23T10:47:07;5.30;;;1.17;;
57567;SDS011;43403;51.948;5.922;2024-02-23T10:52:02;6.03;;;1.13;;
57567;SDS011;43403;51.948;5.922;2024-02-23T10:54:30;3.47;;;0.90;;
57567;SDS011;43403;51.948;5.922;2024-02-23T10:56:57;2.47;;;0.60;;
57567;SDS011;43403;51.948;5.922;2024-02-23T10:59:23;5.53;;;0.90;;
57567;SDS011;43403;51.948;5.922;2024-02-23T11:01:51;7.93;;;1.13;;
57567;SDS011;43403;51.948;5.922;2024-02-23T11:04:18;4.13;;;0.80;;
57567;SDS011;43403;51.948;5.922;2024-02-23T11:06:49;3.75;;;0.70;;
57567;SDS011;43403;51.948;5.922;2024-02-23T11:09:16;4.53;;;1.23;;
57567;SDS011;43403;51.948;5.922;2024-02-23T11:11:56;4.45;;;0.82;;
57567;SDS011;43403;51.948;5.922;2024-02-23T11:14:31;6.43;;;1.17;;
57567;SDS011;43403;51.948;5.922;2024-02-23T11:17:00;5.18;;;1.00;;
57567;SDS011;43403;51.948;5.922;2024-02-23T11:19:34;2.97;;;0.77;;
57567;SDS011;43403;51.948;5.922;2024-02-23T11:22:01;3.28;;;0.93;;
57567;SDS011;43403;51.948;5.922;2024-02-23T11:24:29;3.55;;;1.08;;
57567;SDS011;43403;51.948;5.922;2024-02-23T11:27:00;3.50;;;0.85;;
57567;SDS011;43403;51.948;5.922;2024-02-23T11:29:27;3.22;;;0.80;;
57567;SDS011;43403;51.948;5.922;2024-02-23T11:31:55;2.45;;;0.85;;
57567;SDS011;43403;51.948;5.922;2024-02-23T11:34:26;3.83;;;0.80;;
57567;SDS011;43403;51.948;5.922;2024-02-23T11:36:53;4.80;;;0.93;;
57567;SDS011;43403;51.948;5.922;2024-02-23T11:39:20;3.53;;;1.02;;
57567;SDS011;43403;51.948;5.922;2024-02-23T11:41:48;3.47;;;0.90;;
57567;SDS011;43403;51.948;5.922;2024-02-23T11:44:15;4.07;;;1.00;;
57567;SDS011;43403;51.948;5.922;2024-02-23T11:46:43;2.07;;;0.83;;
57567;SDS011;43403;51.948;5.922;2024-02-23T11:49:11;3.05;;;0.90;;
57567;SDS011;43403;51.948;5.922;2024-02-23T11:51:38;3.47;;;0.98;;
57567;SDS011;43403;51.948;5.922;2024-02-23T11:54:04;6.53;;;1.17;;
57567;SDS011;43403;51.948;5.922;2024-02-23T11:56:32;5.23;;;0.90;;
57567;SDS011;43403;51.948;5.922;2024-02-23T11:58:58;6.32;;;0.95;;
57567;SDS011;43403;51.948;5.922;2024-02-23T12:01:25;4.90;;;1.00;;
57567;SDS011;43403;51.948;5.922;2024-02-23T12:03:54;5.20;;;1.10;;
57567;SDS011;43403;51.948;5.922;2024-02-23T12:06:21;4.65;;;1.20;;
57567;SDS011;43403;51.948;5.922;2024-02-23T12:08:47;3.50;;;1.10;;
57567;SDS011;43403;51.948;5.922;2024-02-23T12:11:15;6.53;;;1.33;;
57567;SDS011;43403;51.948;5.922;2024-02-23T12:13:42;4.60;;;1.00;;
57567;SDS011;43403;51.948;5.922;2024-02-23T12:16:08;5.53;;;1.02;;
57567;SDS011;43403;51.948;5.922;2024-02-23T12:18:35;4.18;;;1.25;;
57567;SDS011;43403;51.948;5.922;2024-02-23T12:21:06;4.88;;;0.93;;
57567;SDS011;43403;51.948;5.922;2024-02-23T12:23:39;6.82;;;0.80;;
57567;SDS011;43403;51.948;5.922;2024-02-23T12:26:06;6.07;;;1.00;;
57567;SDS011;43403;51.948;5.922;2024-02-23T12:28:34;4.40;;;0.70;;
57567;SDS011;43403;51.948;5.922;2024-02-23T12:31:01;2.60;;;0.98;;
57567;SDS011;43403;51.948;5.922;2024-02-23T12:33:28;3.67;;;0.70;;
57567;SDS011;43403;51.948;5.922;2024-02-23T12:35:58;6.90;;;1.25;;
57567;SDS011;43403;51.948;5.922;2024-02-23T12:38:25;3.88;;;0.90;;
57567;SDS011;43403;51.948;5.922;2024-02-23T12:40:51;4.50;;;1.08;;
57567;SDS011;43403;51.948;5.922;2024-02-23T12:43:18;4.30;;;0.90;;
57567;SDS011;43403;51.948;5.922;2024-02-23T12:45:47;5.20;;;1.05;;
57567;SDS011;43403;51.948;5.922;2024-02-23T12:48:17;1.75;;;0.90;;
57567;SDS011;43403;51.948;5.922;2024-02-23T12:50:47;5.60;;;1.27;;
57567;SDS011;43403;51.948;5.922;2024-02-23T12:55:57;1.83;;;0.93;;
57567;SDS011;43403;51.948;5.922;2024-02-23T12:58:25;5.63;;;1.00;;
57567;SDS011;43403;51.948;5.922;2024-02-23T13:00:51;5.88;;;1.17;;
57567;SDS011;43403;51.948;5.922;2024-02-23T13:03:18;5.78;;;1.25;;
57567;SDS011;43403;51.948;5.922;2024-02-23T13:05:45;4.30;;;1.08;;
57567;SDS011;43403;51.948;5.922;2024-02-23T13:08:11;3.65;;;1.27;;
57567;SDS011;43403;51.948;5.922;2024-02-23T13:10:38;5.18;;;1.42;;
57567;SDS011;43403;51.948;5.922;2024-02-23T13:13:04;3.83;;;1.10;;
57567;SDS011;43403;51.948;5.922;2024-02-23T13:15:31;7.13;;;1.42;;
57567;SDS011;43403;51.948;5.922;2024-02-23T13:17:58;3.85;;;1.10;;
57567;SDS011;43403;51.948;5.922;2024-02-23T13:20:24;2.83;;;0.95;;
57567;SDS011;43403;51.948;5.922;2024-02-23T13:22:51;3.03;;;1.10;;
57567;SDS011;43403;51.948;5.922;2024-02-23T13:25:17;5.35;;;1.20;;
57567;SDS011;43403;51.948;5.922;2024-02-23T13:27:43;4.35;;;1.10;;
57567;SDS011;43403;51.948;5.922;2024-02-23T13:30:10;8.00;;;1.70;;
57567;SDS011;43403;51.948;5.922;2024-02-23T13:32:38;6.00;;;1.20;;
57567;SDS011;43403;51.948;5.922;2024-02-23T13:35:05;4.22;;;1.20;;
57567;SDS011;43403;51.948;5.922;2024-02-23T13:37:33;7.60;;;1.83;;
57567;SDS011;43403;51.948;5.922;2024-02-23T13:39:59;3.78;;;1.05;;
57567;SDS011;43403;51.948;5.922;2024-02-23T13:42:26;6.13;;;1.73;;
57567;SDS011;43403;51.948;5.922;2024-02-23T13:44:52;6.40;;;1.33;;
57567;SDS011;43403;51.948;5.922;2024-02-23T13:47:19;8.05;;;1.90;;
57567;SDS011;43403;51.948;5.922;2024-02-23T13:49:45;3.00;;;1.20;;
57567;SDS011;43403;51.948;5.922;2024-02-23T13:52:12;6.30;;;1.27;;
57567;SDS011;43403;51.948;5.922;2024-02-23T13:54:38;4.85;;;1.30;;
57567;SDS011;43403;51.948;5.922;2024-02-23T13:57:04;3.83;;;1.38;;
57567;SDS011;43403;51.948;5.922;2024-02-23T13:59:31;4.07;;;1.70;;
57567;SDS011;43403;51.948;5.922;2024-02-23T14:01:57;5.63;;;1.70;;
57567;SDS011;43403;51.948;5.922;2024-02-23T14:04:24;4.88;;;1.20;;
57567;SDS011;43403;51.948;5.922;2024-02-23T14:06:50;4.80;;;1.27;;
57567;SDS011;43403;51.948;5.922;2024-02-23T14:09:17;5.95;;;1.10;;
57567;SDS011;43403;51.948;5.922;2024-02-23T14:11:43;5.93;;;1.13;;
57567;SDS011;43403;51.948;5.922;2024-02-23T14:14:11;3.70;;;0.98;;
57567;SDS011;43403;51.948;5.922;2024-02-23T14:16:37;6.63;;;1.60;;
57567;SDS011;43403;51.948;5.922;2024-02-23T14:19:04;5.15;;;1.23;;
57567;SDS011;43403;51.948;5.922;2024-02-23T14:21:30;4.65;;;1.02;;
57567;SDS011;43403;51.948;5.922;2024-02-23T14:23:57;5.88;;;1.75;;
57567;SDS011;43403;51.948;5.922;2024-02-23T14:26:23;4.10;;;1.17;;
57567;SDS011;43403;51.948;5.922;2024-02-23T14:28:50;4.72;;;1.20;;
57567;SDS011;43403;51.948;5.922;2024-02-23T14:31:16;7.65;;;1.40;;
57567;SDS011;43403;51.948;5.922;2024-02-23T14:33:42;7.55;;;1.42;;
57567;SDS011;43403;51.948;5.922;2024-02-23T14:36:13;8.00;;;1.30;;
57567;SDS011;43403;51.948;5.922;2024-02-23T14:38:39;3.28;;;0.98;;
57567;SDS011;43403;51.948;5.922;2024-02-23T14:41:06;3.20;;;0.95;;
57567;SDS011;43403;51.948;5.922;2024-02-23T14:43:35;2.67;;;0.85;;
57567;SDS011;43403;51.948;5.922;2024-02-23T14:46:02;3.60;;;1.35;;
57567;SDS011;43403;51.948;5.922;2024-02-23T14:48:28;4.00;;;1.10;;
57567;SDS011;43403;51.948;5.922;2024-02-23T14:50:55;4.97;;;1.15;;
57567;SDS011;43403;51.948;5.922;2024-02-23T14:53:22;7.05;;;1.70;;
57567;SDS011;43403;51.948;5.922;2024-02-23T14:55:51;5.75;;;1.38;;
57567;SDS011;43403;51.948;5.922;2024-02-23T14:58:18;6.68;;;1.45;;
57567;SDS011;43403;51.948;5.922;2024-02-23T15:00:45;3.67;;;1.10;;